createdAt,value
2022-09-07T00:00:06.352Z,8.80
2022-09-07T00:01:38.130Z,9.02
2022-09-07T00:03:10.266Z,8.57
2022-09-07T00:04:42.103Z,8.90
2022-09-07T00:06:14.393Z,8.40
2022-09-07T00:07:46.463Z,8.75
2022-09-07T00:09:18.488Z,8.77
2022-09-07T00:10:58.652Z,8.90
2022-09-07T00:12:30.385Z,8.68
2022-09-07T00:14:02.107Z,10.35
2022-09-07T00:15:38.566Z,8.80
2022-09-07T00:17:10.292Z,8.60
2022-09-07T00:18:46.062Z,9.63
2022-09-07T00:20:18.613Z,8.93
2022-09-07T00:21:50.441Z,9.20
2022-09-07T00:23:22.195Z,8.70
2022-09-07T00:24:53.939Z,8.85
2022-09-07T00:26:30.694Z,9.57
2022-09-07T00:28:02.705Z,8.98
2022-09-07T00:29:34.434Z,9.18
2022-09-07T00:31:11.408Z,8.10
2022-09-07T00:32:43.181Z,9.40
2022-09-07T00:34:14.897Z,8.60
2022-09-07T00:35:46.733Z,9.25
2022-09-07T00:37:18.606Z,8.70
2022-09-07T00:38:51.523Z,9.40
2022-09-07T00:40:23.287Z,9.10
2022-09-07T00:41:55.019Z,8.80
2022-09-07T00:43:36.770Z,8.70
2022-09-07T00:45:19.158Z,9.05
2022-09-07T00:46:50.954Z,9.13
2022-09-07T00:48:27.901Z,8.80
2022-09-07T00:50:05.767Z,8.40
2022-09-07T00:51:46.143Z,9.20
2022-09-07T00:53:22.446Z,8.57
2022-09-07T00:54:59.768Z,8.70
2022-09-07T00:56:34.997Z,9.90
2022-09-07T00:58:08.009Z,9.30
2022-09-07T00:59:44.098Z,9.32
2022-09-07T01:01:17.412Z,9.60
2022-09-07T01:02:52.408Z,9.50
2022-09-07T01:04:25.246Z,9.52
2022-09-07T01:06:14.209Z,9.40
2022-09-07T01:07:46.033Z,9.63
2022-09-07T01:09:22.382Z,8.95
2022-09-07T01:10:55.446Z,8.60
2022-09-07T01:12:27.977Z,8.48
2022-09-07T01:13:59.852Z,9.23
2022-09-07T01:15:48.788Z,9.45
2022-09-07T01:17:37.485Z,8.75
2022-09-07T01:19:31.632Z,8.43
2022-09-07T01:21:20.802Z,8.77
2022-09-07T01:23:16.918Z,8.88
2022-09-07T01:25:07.556Z,9.20
2022-09-07T01:27:05.619Z,9.13
2022-09-07T01:28:38.996Z,9.82
2022-09-07T01:30:19.838Z,9.10
2022-09-07T01:31:59.155Z,9.90
2022-09-07T01:33:44.791Z,9.32
2022-09-07T01:35:26.479Z,9.07
2022-09-07T01:37:28.784Z,9.20
2022-09-07T01:39:03.090Z,8.48
2022-09-07T01:40:52.184Z,9.15
2022-09-07T01:42:33.206Z,7.82
2022-09-07T01:44:15.526Z,7.82
2022-09-07T01:45:47.950Z,8.60
2022-09-07T01:47:28.735Z,8.45
2022-09-07T01:49:19.304Z,8.50
2022-09-07T01:51:00.387Z,8.50
2022-09-07T01:52:49.366Z,8.30
2022-09-07T01:54:27.170Z,8.95
2022-09-07T01:56:05.218Z,8.15
2022-09-07T01:57:43.326Z,8.55
2022-09-07T01:59:24.141Z,9.20
2022-09-07T02:01:03.080Z,8.60
2022-09-07T02:02:42.163Z,9.00
2022-09-07T02:04:27.438Z,8.88
2022-09-07T02:06:05.212Z,8.48
2022-09-07T02:07:45.436Z,9.45
2022-09-07T02:09:31.566Z,9.77
2022-09-07T02:11:43.847Z,8.93
2022-09-07T02:13:22.062Z,8.82
2022-09-07T02:14:59.722Z,9.23
2022-09-07T02:16:33.858Z,8.93
2022-09-07T02:18:08.161Z,9.55
2022-09-07T02:19:51.062Z,10.15
2022-09-07T02:21:31.624Z,10.02
2022-09-07T02:23:09.186Z,9.52
2022-09-07T02:24:47.106Z,9.10
2022-09-07T02:26:22.459Z,9.90
2022-09-07T02:28:00.240Z,8.70
2022-09-07T02:29:32.780Z,9.20
2022-09-07T02:31:05.319Z,8.60
2022-09-07T02:32:37.215Z,9.02
2022-09-07T02:34:09.025Z,9.38
2022-09-07T02:35:40.857Z,9.00
2022-09-07T02:37:14.904Z,8.95
2022-09-07T02:38:46.656Z,8.98
2022-09-07T02:40:18.698Z,8.88
2022-09-07T02:41:50.410Z,8.50
2022-09-07T02:43:23.987Z,9.02
2022-09-07T02:44:55.845Z,9.40
2022-09-07T02:46:52.696Z,8.68
2022-09-07T02:48:54.593Z,8.10
2022-09-07T02:50:50.478Z,8.30
2022-09-07T02:52:59.449Z,8.68
2022-09-07T02:55:05.262Z,9.05
2022-09-07T02:56:48.707Z,8.80
2022-09-07T02:58:49.680Z,10.30
2022-09-07T03:00:26.320Z,8.75
2022-09-07T03:02:27.791Z,8.65
2022-09-07T03:04:13.773Z,8.82
2022-09-07T03:05:52.213Z,9.27
2022-09-07T03:07:30.196Z,8.85
2022-09-07T03:09:07.859Z,9.77
2022-09-07T03:10:40.556Z,9.13
2022-09-07T03:12:12.871Z,9.07
2022-09-07T03:13:44.618Z,8.77
2022-09-07T03:15:20.516Z,8.75
2022-09-07T03:16:56.260Z,9.70
2022-09-07T03:18:28.513Z,9.43
2022-09-07T03:20:00.337Z,9.30
2022-09-07T03:21:32.549Z,8.88
2022-09-07T03:23:04.307Z,9.90
2022-09-07T03:24:36.870Z,8.77
2022-09-07T03:26:23.902Z,9.15
2022-09-07T03:27:55.646Z,9.30
2022-09-07T03:29:27.396Z,8.27
2022-09-07T03:30:59.356Z,10.35
2022-09-07T03:32:36.660Z,8.77
2022-09-07T03:34:08.610Z,9.25
2022-09-07T03:35:40.355Z,8.98
2022-09-07T03:37:12.094Z,9.18
2022-09-07T03:38:44.315Z,9.85
2022-09-07T03:40:17.445Z,8.43
2022-09-07T03:41:49.670Z,9.40
2022-09-07T03:43:21.390Z,9.30
2022-09-07T03:44:53.154Z,8.20
2022-09-07T03:46:24.935Z,7.95
2022-09-07T03:47:56.697Z,8.60
2022-09-07T03:49:28.449Z,9.25
2022-09-07T03:51:07.633Z,10.55
2022-09-07T03:52:39.407Z,8.25
2022-09-07T03:54:11.126Z,9.00
2022-09-07T03:55:42.829Z,8.82
2022-09-07T03:57:14.635Z,10.07
2022-09-07T03:58:48.514Z,9.20
2022-09-07T04:00:20.369Z,9.55
2022-09-07T04:01:52.221Z,10.95
2022-09-07T04:03:23.994Z,9.45
2022-09-07T04:04:55.737Z,9.70
2022-09-07T04:06:27.567Z,9.23
2022-09-07T04:07:59.301Z,8.98
2022-09-07T04:09:31.190Z,8.38
2022-09-07T04:11:05.067Z,8.75
2022-09-07T04:12:36.808Z,8.40
2022-09-07T04:14:09.469Z,8.20
2022-09-07T04:15:41.330Z,8.13
2022-09-07T04:17:13.098Z,7.97
2022-09-07T04:18:45.010Z,8.00
2022-09-07T04:20:16.710Z,8.07
2022-09-07T04:21:48.649Z,7.70
2022-09-07T04:23:20.463Z,8.35
2022-09-07T04:24:52.203Z,8.27
2022-09-07T04:26:26.823Z,7.97
2022-09-07T04:27:59.078Z,8.43
2022-09-07T04:29:31.177Z,8.80
2022-09-07T04:31:03.087Z,7.78
2022-09-07T04:32:34.961Z,9.35
2022-09-07T04:34:07.402Z,8.65
2022-09-07T04:35:40.878Z,9.02
2022-09-07T04:37:12.731Z,8.75
2022-09-07T04:38:45.413Z,8.82
2022-09-07T04:40:17.365Z,8.13
2022-09-07T04:41:49.099Z,8.85
2022-09-07T04:43:20.835Z,8.93
2022-09-07T04:44:52.575Z,8.60
2022-09-07T04:46:27.409Z,8.93
2022-09-07T04:47:59.219Z,8.40
2022-09-07T04:49:30.930Z,8.63
2022-09-07T04:51:06.842Z,8.45
2022-09-07T04:52:38.601Z,8.93
2022-09-07T04:54:11.564Z,9.52
2022-09-07T04:55:43.289Z,8.75
2022-09-07T04:57:15.071Z,8.30
2022-09-07T04:58:47.676Z,8.77
2022-09-07T05:00:19.682Z,9.30
2022-09-07T05:01:51.490Z,9.40
2022-09-07T05:03:23.261Z,8.93
2022-09-07T05:04:57.389Z,8.98
2022-09-07T05:06:32.512Z,8.57
2022-09-07T05:08:04.287Z,8.40
2022-09-07T05:09:36.763Z,8.40
2022-09-07T05:11:10.214Z,9.07
2022-09-07T05:12:41.955Z,8.80
2022-09-07T05:14:13.705Z,8.77
2022-09-07T05:15:45.750Z,8.90
2022-09-07T05:17:18.022Z,8.85
2022-09-07T05:18:54.550Z,9.30
2022-09-07T05:20:26.310Z,10.05
2022-09-07T05:21:58.571Z,8.98
2022-09-07T05:23:30.352Z,8.32
2022-09-07T05:25:02.102Z,9.52
2022-09-07T05:26:36.309Z,8.95
2022-09-07T05:28:08.036Z,9.43
2022-09-07T05:31:33.199Z,9.43
2022-09-07T05:33:05.429Z,9.63
2022-09-07T05:34:37.176Z,9.50
2022-09-07T05:36:08.928Z,9.10
2022-09-07T05:37:40.978Z,9.50
2022-09-07T05:39:12.801Z,9.52
2022-09-07T05:40:44.535Z,10.45
2022-09-07T05:42:16.439Z,9.77
2022-09-07T05:45:40.829Z,14.43
2022-09-07T05:47:12.705Z,9.82
2022-09-07T05:48:45.429Z,10.05
2022-09-07T05:50:17.875Z,9.77
2022-09-07T05:51:49.684Z,9.68
2022-09-07T05:53:22.134Z,9.10
2022-09-07T05:54:59.254Z,9.20
2022-09-07T05:56:39.455Z,9.45
2022-09-07T05:58:11.187Z,9.50
2022-09-07T05:59:42.925Z,9.38
2022-09-07T06:01:15.310Z,9.55
2022-09-07T06:02:47.921Z,8.95
2022-09-07T06:04:19.789Z,9.48
2022-09-07T06:06:26.867Z,9.93
2022-09-07T06:07:58.607Z,8.98
2022-09-07T06:09:30.807Z,9.43
2022-09-07T06:11:15.154Z,9.80
2022-09-07T06:12:49.125Z,9.52
2022-09-07T06:14:21.262Z,9.98
2022-09-07T06:15:53.109Z,9.82
2022-09-07T06:17:24.826Z,9.80
2022-09-07T06:18:56.621Z,10.00
2022-09-07T06:20:28.410Z,9.48
2022-09-07T06:22:00.206Z,11.65
2022-09-07T06:23:32.926Z,10.13
2022-09-07T06:25:05.383Z,9.73
2022-09-07T06:26:37.134Z,9.18
2022-09-07T06:28:08.878Z,9.35
2022-09-07T06:29:40.606Z,9.00
2022-09-07T06:31:18.489Z,9.85
2022-09-07T06:32:50.300Z,10.40
2022-09-07T06:34:24.153Z,10.07
2022-09-07T06:36:05.005Z,9.65
2022-09-07T06:37:36.761Z,9.68
2022-09-07T06:39:09.473Z,10.23
2022-09-07T06:40:42.518Z,8.95
2022-09-07T06:42:14.256Z,9.63
2022-09-07T06:43:49.889Z,10.05
2022-09-07T06:45:21.720Z,9.38
2022-09-07T06:48:33.891Z,11.00
2022-09-07T06:50:05.952Z,9.95
2022-09-07T06:51:38.587Z,9.52
2022-09-07T06:55:02.326Z,9.95
2022-09-07T06:56:34.135Z,9.07
2022-09-07T06:58:05.874Z,9.98
2022-09-07T06:59:38.420Z,9.73
2022-09-07T07:01:16.904Z,10.68
2022-09-07T07:02:48.715Z,9.57
2022-09-07T07:04:20.594Z,9.82
2022-09-07T07:05:53.002Z,10.25
2022-09-07T07:07:24.789Z,9.35
2022-09-07T07:08:56.512Z,11.10
2022-09-07T07:10:28.291Z,9.70
2022-09-07T07:12:00.042Z,9.90
2022-09-07T07:13:31.990Z,9.80
2022-09-07T07:15:04.158Z,9.95
2022-09-07T07:16:36.264Z,9.48
2022-09-07T07:18:30.933Z,8.93
2022-09-07T07:20:00.231Z,9.23
2022-09-07T07:21:48.590Z,9.85
2022-09-07T07:23:24.105Z,10.40
2022-09-07T07:24:55.954Z,9.45
2022-09-07T07:26:27.770Z,10.23
2022-09-07T07:29:55.074Z,10.05
2022-09-07T07:31:27.501Z,10.13
2022-09-07T07:32:59.291Z,9.60
2022-09-07T07:34:31.122Z,9.30
2022-09-07T07:36:13.501Z,10.20
2022-09-07T07:37:45.331Z,9.43
2022-09-07T07:43:01.600Z,9.45
2022-09-07T07:44:33.329Z,9.10
2022-09-07T07:46:06.321Z,9.18
2022-09-07T07:47:38.412Z,9.13
2022-09-07T07:49:10.167Z,9.43
2022-09-07T07:50:41.856Z,10.80
2022-09-07T07:54:05.637Z,12.00
2022-09-07T07:55:45.092Z,8.93
2022-09-07T07:57:19.948Z,9.90
2022-09-07T07:58:52.613Z,9.38
2022-09-07T08:00:37.718Z,9.95
2022-09-07T08:02:17.090Z,10.95
2022-09-07T08:03:49.272Z,9.15
2022-09-07T08:05:21.218Z,8.07
2022-09-07T08:06:52.975Z,8.93
2022-09-07T08:08:24.746Z,8.25
2022-09-07T08:09:56.460Z,8.50
2022-09-07T08:11:30.484Z,7.78
2022-09-07T08:13:02.178Z,8.45
2022-09-07T08:14:36.645Z,9.27
2022-09-07T08:16:09.887Z,9.50
2022-09-07T08:17:41.606Z,9.38
2022-09-07T08:19:13.483Z,8.80
2022-09-07T08:20:45.255Z,8.48
2022-09-07T08:22:16.986Z,7.85
2022-09-07T08:23:48.772Z,8.52
2022-09-07T08:25:21.215Z,9.00
2022-09-07T08:26:52.920Z,9.00
2022-09-07T08:28:28.971Z,9.05
2022-09-07T08:30:00.660Z,9.82
2022-09-07T08:31:32.387Z,9.38
2022-09-07T08:33:04.295Z,9.80
2022-09-07T08:34:37.361Z,9.32
2022-09-07T08:36:15.059Z,8.25
2022-09-07T08:37:46.972Z,8.57
2022-09-07T08:39:18.855Z,8.88
2022-09-07T08:40:50.898Z,8.10
2022-09-07T08:42:42.289Z,8.70
2022-09-07T08:44:34.729Z,8.55
2022-09-07T08:46:16.609Z,8.23
2022-09-07T08:47:51.471Z,8.23
2022-09-07T08:49:32.148Z,8.43
2022-09-07T08:51:19.066Z,8.02
2022-09-07T08:53:04.557Z,7.05
2022-09-07T08:54:37.949Z,7.03
2022-09-07T08:56:16.609Z,7.65
2022-09-07T08:58:01.101Z,7.05
2022-09-07T08:59:48.544Z,7.25
2022-09-07T09:01:32.398Z,7.53
2022-09-07T09:05:17.448Z,7.28
2022-09-07T09:07:24.051Z,7.70
2022-09-07T09:09:04.604Z,6.80
2022-09-07T09:10:47.141Z,6.97
2022-09-07T09:12:52.255Z,7.22
2022-09-07T09:14:44.205Z,7.18
2022-09-07T09:16:42.982Z,6.60
2022-09-07T09:18:31.850Z,6.97
2022-09-07T09:20:21.881Z,6.97
2022-09-07T09:22:16.011Z,16.45
2022-09-07T09:23:51.167Z,6.65
2022-09-07T09:25:31.818Z,6.68
2022-09-07T09:27:03.854Z,5.93
2022-09-07T09:28:35.719Z,6.65
2022-09-07T09:30:14.457Z,6.47
2022-09-07T09:31:46.504Z,5.95
2022-09-07T09:33:23.966Z,6.57
2022-09-07T09:35:13.685Z,7.80
2022-09-07T09:36:49.578Z,6.13
2022-09-07T09:38:32.205Z,6.43
2022-09-07T09:40:07.113Z,6.35
2022-09-07T09:41:39.352Z,6.00
2022-09-07T09:43:33.325Z,6.47
2022-09-07T09:45:27.064Z,6.50
2022-09-07T09:49:00.619Z,6.38
2022-09-07T09:52:38.443Z,6.15
2022-09-07T09:54:21.758Z,6.30
2022-09-07T09:55:54.680Z,6.35
2022-09-07T10:00:10.367Z,6.38
2022-09-07T10:05:28.734Z,5.63
2022-09-07T10:07:06.675Z,6.43
2022-09-07T10:08:38.557Z,6.25
2022-09-07T10:10:17.053Z,6.18
2022-09-07T10:12:10.577Z,6.03
2022-09-07T10:14:03.181Z,6.20
2022-09-07T10:15:40.895Z,6.57
2022-09-07T10:17:31.935Z,6.22
2022-09-07T10:19:03.680Z,6.45
2022-09-07T10:20:37.613Z,6.10
2022-09-07T10:22:36.135Z,6.47
2022-09-07T10:24:07.804Z,6.25
2022-09-07T10:25:44.490Z,5.88
2022-09-07T10:27:40.844Z,5.82
2022-09-07T10:29:14.376Z,6.00
2022-09-07T10:31:09.874Z,6.10
2022-09-07T10:32:54.277Z,6.57
2022-09-07T10:34:50.433Z,6.65
2022-09-07T10:36:55.499Z,6.35
2022-09-07T10:38:34.275Z,6.47
2022-09-07T10:40:09.883Z,6.40
2022-09-07T10:41:54.669Z,6.18
2022-09-07T10:43:44.765Z,6.10
2022-09-07T10:45:23.790Z,5.85
2022-09-07T10:47:12.373Z,6.68
2022-09-07T10:49:13.824Z,6.80
2022-09-07T10:52:56.427Z,6.30
2022-09-07T10:54:53.285Z,6.57
2022-09-07T10:56:33.329Z,6.30
2022-09-07T10:59:01.435Z,6.22
2022-09-07T11:00:22.361Z,5.68
2022-09-07T11:02:18.645Z,6.47
2022-09-07T11:04:34.984Z,6.13
2022-09-07T11:06:16.338Z,6.13
2022-09-07T11:08:07.773Z,6.38
2022-09-07T11:10:01.434Z,6.45
2022-09-07T11:13:55.512Z,5.82
2022-09-07T11:15:30.999Z,5.65
2022-09-07T11:17:08.899Z,5.80
2022-09-07T11:21:01.956Z,5.53
2022-09-07T11:22:39.628Z,6.10
2022-09-07T11:24:28.149Z,6.15
2022-09-07T11:26:11.528Z,6.05
2022-09-07T11:27:50.502Z,6.13
2022-09-07T11:29:41.011Z,5.80
2022-09-07T11:31:22.213Z,6.00
2022-09-07T11:33:13.630Z,6.15
2022-09-07T11:34:52.364Z,5.45
2022-09-07T11:36:29.035Z,5.80
2022-09-07T11:38:12.050Z,5.78
2022-09-07T11:39:51.711Z,6.18
2022-09-07T11:41:29.012Z,6.82
2022-09-07T11:43:11.598Z,6.60
2022-09-07T11:44:51.702Z,5.60
2022-09-07T11:46:41.485Z,5.68
2022-09-07T11:48:21.882Z,6.57
2022-09-07T11:49:59.205Z,5.78
2022-09-07T11:51:40.622Z,6.07
2022-09-07T11:53:20.582Z,7.70
2022-09-07T11:54:57.777Z,5.88
2022-09-07T11:56:45.727Z,6.20
2022-09-07T11:58:49.783Z,6.05
2022-09-07T12:00:24.348Z,5.63
2022-09-07T12:02:15.870Z,5.75
2022-09-07T12:04:06.359Z,5.50
2022-09-07T12:06:08.057Z,5.85
2022-09-07T12:07:55.971Z,5.93
2022-09-07T12:09:54.833Z,5.85
2022-09-07T12:12:05.758Z,6.95
2022-09-07T12:14:06.567Z,6.07
2022-09-07T12:15:59.661Z,5.80
2022-09-07T12:17:39.917Z,5.97
2022-09-07T12:19:19.311Z,6.20
2022-09-07T12:20:51.117Z,6.32
2022-09-07T12:22:23.217Z,6.45
2022-09-07T12:23:54.917Z,5.85
2022-09-07T12:25:29.107Z,5.55
2022-09-07T12:27:02.010Z,6.53
2022-09-07T12:28:36.492Z,6.28
2022-09-07T12:30:30.252Z,6.03
2022-09-07T12:34:41.858Z,7.00
2022-09-07T12:36:28.623Z,6.00
2022-09-07T12:38:00.949Z,6.10
2022-09-07T12:39:33.446Z,5.90
2022-09-07T12:41:24.625Z,6.20
2022-09-07T12:43:14.838Z,5.75
2022-09-07T12:44:46.591Z,7.63
2022-09-07T12:46:38.210Z,5.28
2022-09-07T12:48:42.222Z,6.20
2022-09-07T12:50:26.631Z,6.93
2022-09-07T12:52:17.814Z,7.30
2022-09-07T12:54:10.978Z,6.55
2022-09-07T12:56:17.078Z,6.68
2022-09-07T12:58:12.812Z,6.10
2022-09-07T13:00:06.702Z,6.53
2022-09-07T13:02:14.928Z,6.07
2022-09-07T13:04:08.457Z,6.35
2022-09-07T13:05:56.534Z,6.50
2022-09-07T13:08:08.694Z,6.63
2022-09-07T13:09:41.673Z,6.63
2022-09-07T13:11:19.421Z,7.10
2022-09-07T13:12:53.177Z,6.82
2022-09-07T13:14:28.256Z,6.97
2022-09-07T13:16:05.901Z,6.68
2022-09-07T13:17:43.007Z,7.40
2022-09-07T13:19:46.480Z,8.48
2022-09-07T13:21:18.562Z,9.07
2022-09-07T13:22:50.197Z,8.55
2022-09-07T13:24:46.308Z,9.02
2022-09-07T13:26:59.059Z,7.88
2022-09-07T13:28:33.889Z,6.85
2022-09-07T13:30:34.739Z,5.97
2022-09-07T13:33:07.854Z,6.00
2022-09-07T13:34:37.633Z,5.75
2022-09-07T13:36:45.477Z,5.35
2022-09-07T13:38:17.459Z,5.32
2022-09-07T13:39:52.711Z,6.05
2022-09-07T13:41:35.186Z,5.55
2022-09-07T13:43:14.533Z,6.03
2022-09-07T13:45:01.439Z,5.72
2022-09-07T13:47:17.492Z,4.97
2022-09-07T13:49:01.165Z,4.47
2022-09-07T13:50:50.273Z,5.28
2022-09-07T13:52:27.721Z,5.40
2022-09-07T13:54:22.943Z,6.28
2022-09-07T13:56:15.558Z,4.82
2022-09-07T13:57:56.368Z,3.78
2022-09-07T13:59:33.856Z,4.88
2022-09-07T14:01:14.603Z,3.97
2022-09-07T14:02:56.530Z,6.50
2022-09-07T14:04:43.145Z,4.68
2022-09-07T14:06:15.912Z,4.13
2022-09-07T14:07:49.496Z,4.25
2022-09-07T14:09:22.351Z,4.43
2022-09-07T14:10:54.097Z,3.60
2022-09-07T14:12:25.807Z,4.20
2022-09-07T14:14:27.749Z,4.10
2022-09-07T14:15:59.478Z,3.45
2022-09-07T14:17:31.596Z,5.85
2022-09-07T14:19:10.237Z,3.53
2022-09-07T14:20:45.960Z,3.55
2022-09-07T14:22:23.386Z,4.85
2022-09-07T14:23:58.219Z,4.95
2022-09-07T14:25:30.136Z,4.10
2022-09-07T14:27:02.926Z,4.22
2022-09-07T14:28:38.806Z,3.85
2022-09-07T14:30:19.576Z,3.83
2022-09-07T14:31:51.845Z,4.13
2022-09-07T14:33:23.786Z,6.05
2022-09-07T14:34:55.547Z,3.75
2022-09-07T14:36:45.781Z,4.00
2022-09-07T14:40:21.980Z,6.28
2022-09-07T14:41:53.819Z,5.00
2022-09-07T14:43:40.982Z,6.63
2022-09-07T14:45:18.372Z,6.00
2022-09-07T14:46:55.254Z,6.75
2022-09-07T14:48:32.211Z,5.65
2022-09-07T14:50:05.440Z,7.10
2022-09-07T14:51:37.364Z,5.75
2022-09-07T14:55:34.714Z,6.15
2022-09-07T14:57:32.534Z,5.88
2022-09-07T14:59:28.365Z,6.75
2022-09-07T15:03:32.893Z,7.25
2022-09-07T15:05:18.447Z,5.93
2022-09-07T15:07:05.569Z,6.18
2022-09-07T15:08:42.758Z,7.10
2022-09-07T15:10:25.826Z,6.70
2022-09-07T15:12:15.584Z,6.50
2022-09-07T15:13:57.143Z,6.90
2022-09-07T15:15:31.160Z,6.85
2022-09-07T15:19:15.066Z,8.77
2022-09-07T15:20:46.787Z,6.68
2022-09-07T15:22:19.198Z,7.47
2022-09-07T15:23:53.254Z,7.28
2022-09-07T15:25:25.083Z,6.75
2022-09-07T15:27:04.145Z,7.38
2022-09-07T15:30:28.282Z,7.10
2022-09-07T15:32:04.382Z,7.25
2022-09-07T15:33:36.709Z,7.53
2022-09-07T15:35:08.871Z,7.95
2022-09-07T15:36:44.446Z,6.43
2022-09-07T15:40:21.941Z,6.57
2022-09-07T15:41:53.768Z,6.47
2022-09-07T15:43:26.762Z,6.20
2022-09-07T15:45:01.968Z,9.15
2022-09-07T15:46:34.120Z,6.38
2022-09-07T15:48:07.094Z,7.18
2022-09-07T15:49:40.122Z,6.18
2022-09-07T15:53:06.096Z,6.05
2022-09-07T15:54:39.854Z,5.90
2022-09-07T15:56:11.822Z,7.72
2022-09-07T15:57:59.442Z,5.72
2022-09-07T15:59:35.297Z,5.05
2022-09-07T16:03:07.075Z,5.78
2022-09-07T16:04:39.545Z,4.95
2022-09-07T16:06:13.964Z,6.07
2022-09-07T16:09:39.190Z,5.20
2022-09-07T16:11:23.913Z,6.35
2022-09-07T16:13:10.035Z,6.88
2022-09-07T16:14:43.019Z,5.75
2022-09-07T16:16:15.672Z,6.70
2022-09-07T16:17:53.860Z,5.63
2022-09-07T16:19:25.807Z,4.97
2022-09-07T16:20:57.547Z,5.63
2022-09-07T16:24:21.347Z,6.05
2022-09-07T16:25:58.542Z,5.40
2022-09-07T16:27:32.369Z,5.25
2022-09-07T16:29:05.470Z,5.80
2022-09-07T16:30:40.768Z,5.32
2022-09-07T16:34:04.734Z,6.38
2022-09-07T16:35:36.407Z,6.22
2022-09-07T16:37:08.134Z,5.78
2022-09-07T16:38:44.261Z,5.78
2022-09-07T16:40:17.223Z,6.72
2022-09-07T16:41:50.154Z,6.60
2022-09-07T16:43:21.889Z,6.63
2022-09-07T16:44:53.907Z,6.90
2022-09-07T16:46:28.478Z,7.10
2022-09-07T16:48:00.177Z,5.68
2022-09-07T16:49:31.889Z,7.60
2022-09-07T16:51:05.099Z,6.20
2022-09-07T16:52:36.777Z,6.45
2022-09-07T16:54:12.427Z,6.40
2022-09-07T16:55:44.140Z,6.47
2022-09-07T16:57:17.762Z,6.32
2022-09-07T16:58:53.008Z,5.60
2022-09-07T17:00:24.984Z,6.18
2022-09-07T17:01:56.924Z,6.47
2022-09-07T17:03:28.813Z,7.18
2022-09-07T17:05:00.559Z,7.43
2022-09-07T17:06:32.473Z,6.90
2022-09-07T17:08:04.198Z,7.18
2022-09-07T17:09:35.924Z,7.13
2022-09-07T17:11:10.672Z,7.05
2022-09-07T17:12:42.367Z,7.20
2022-09-07T17:14:14.125Z,7.93
2022-09-07T17:15:45.827Z,8.32
2022-09-07T17:17:18.741Z,7.38
2022-09-07T17:20:42.866Z,7.93
2022-09-07T17:22:14.786Z,8.73
2022-09-07T17:23:54.314Z,9.30
2022-09-07T17:25:28.381Z,8.80
2022-09-07T17:27:00.909Z,7.78
2022-09-07T17:28:32.711Z,8.98
2022-09-07T17:30:06.744Z,7.80
2022-09-07T17:33:31.950Z,8.25
2022-09-07T17:35:04.132Z,7.68
2022-09-07T17:36:35.858Z,7.88
2022-09-07T17:40:05.782Z,7.35
2022-09-07T17:41:37.660Z,7.93
2022-09-07T17:45:01.171Z,7.38
2022-09-07T17:46:32.887Z,8.50
2022-09-07T17:48:04.535Z,6.95
2022-09-07T17:49:36.202Z,6.82
2022-09-07T17:51:09.776Z,6.10
2022-09-07T17:52:45.996Z,6.93
2022-09-07T17:54:18.350Z,7.05
2022-09-07T17:55:49.999Z,7.30
2022-09-07T17:57:22.526Z,6.15
2022-09-07T18:00:10.706Z,6.70
2022-09-07T18:00:46.140Z,7.50
2022-09-07T18:02:17.847Z,7.00
2022-09-07T18:03:49.533Z,8.52
2022-09-07T18:05:21.320Z,6.97
2022-09-07T18:06:54.240Z,7.55
2022-09-07T18:08:27.025Z,6.50
2022-09-07T18:09:58.781Z,7.15
2022-09-07T18:11:48.174Z,7.78
2022-09-07T18:13:30.881Z,7.60
2022-09-07T18:15:07.405Z,6.57
2022-09-07T18:16:39.123Z,8.00
2022-09-07T18:18:12.874Z,8.68
2022-09-07T18:19:44.808Z,7.00
2022-09-07T18:21:25.782Z,7.07
2022-09-07T18:22:57.725Z,7.38
2022-09-07T18:24:29.686Z,7.28
2022-09-07T18:26:01.321Z,6.95
2022-09-07T18:27:34.372Z,6.38
2022-09-07T18:29:18.682Z,7.15
2022-09-07T18:31:12.117Z,6.72
2022-09-07T18:32:45.122Z,6.78
2022-09-07T18:34:16.994Z,7.63
2022-09-07T18:35:48.668Z,7.07
2022-09-07T18:37:20.455Z,6.70
2022-09-07T18:38:52.816Z,7.05
2022-09-07T18:40:24.529Z,7.35
2022-09-07T18:41:56.760Z,6.78
2022-09-07T18:43:30.178Z,7.47
2022-09-07T18:46:53.714Z,7.55
2022-09-07T18:48:25.382Z,6.78
2022-09-07T18:49:57.871Z,8.25
2022-09-07T18:51:30.307Z,6.90
2022-09-07T18:53:15.866Z,8.50
2022-09-07T18:54:48.340Z,7.47
2022-09-07T18:56:21.484Z,6.95
2022-09-07T18:57:53.174Z,7.60
2022-09-07T18:59:26.120Z,7.55
2022-09-07T19:01:04.152Z,8.30
2022-09-07T19:02:36.280Z,7.30
2022-09-07T19:04:08.124Z,7.68
2022-09-07T19:05:55.667Z,7.22
2022-09-07T19:07:29.932Z,7.78
2022-09-07T19:09:04.086Z,8.60
2022-09-07T19:10:37.370Z,7.47
2022-09-07T19:12:10.147Z,7.60
2022-09-07T19:13:42.492Z,7.50
2022-09-07T19:15:14.542Z,7.25
2022-09-07T19:16:46.297Z,7.20
2022-09-07T19:18:18.049Z,7.68
2022-09-07T19:19:49.740Z,8.40
2022-09-07T19:21:24.081Z,8.23
2022-09-07T19:22:56.670Z,9.10
2022-09-07T19:24:28.688Z,7.78
2022-09-07T19:26:05.490Z,8.38
2022-09-07T19:27:37.218Z,9.13
2022-09-07T19:29:15.572Z,8.55
2022-09-07T19:30:47.256Z,9.30
2022-09-07T19:32:18.916Z,7.80
2022-09-07T19:33:58.242Z,8.65
2022-09-07T19:35:30.223Z,7.60
2022-09-07T19:37:02.792Z,8.05
2022-09-07T19:38:34.525Z,8.02
2022-09-07T19:40:07.517Z,8.50
2022-09-07T19:41:42.537Z,8.55
2022-09-07T19:43:14.219Z,8.77
2022-09-07T19:44:45.928Z,9.18
2022-09-07T19:46:22.692Z,9.73
2022-09-07T19:47:55.968Z,8.35
2022-09-07T19:49:28.699Z,8.15
2022-09-07T19:51:02.309Z,9.52
2022-09-07T19:52:34.058Z,10.85
2022-09-07T19:54:08.624Z,8.75
2022-09-07T19:55:40.823Z,10.45
2022-09-07T19:57:12.501Z,8.75
2022-09-07T19:58:45.786Z,8.48
2022-09-07T20:00:17.516Z,8.38
2022-09-07T20:01:50.598Z,8.52
2022-09-07T20:03:22.288Z,8.45
2022-09-07T20:04:54.272Z,8.52
2022-09-07T20:06:27.052Z,8.38
2022-09-07T20:07:58.732Z,8.52
2022-09-07T20:09:30.806Z,8.30
2022-09-07T20:11:04.610Z,8.27
2022-09-07T20:12:36.578Z,8.63
2022-09-07T20:14:08.406Z,8.85
2022-09-07T20:15:41.340Z,9.20
2022-09-07T20:17:13.049Z,9.43
2022-09-07T20:18:45.356Z,10.10
2022-09-07T20:20:17.033Z,9.50
2022-09-07T20:21:49.174Z,10.15
2022-09-07T20:23:21.476Z,9.65
2022-09-07T20:24:53.153Z,10.43
2022-09-07T20:26:24.878Z,9.77
2022-09-07T20:27:56.665Z,10.32
2022-09-07T20:29:29.988Z,11.85
2022-09-07T20:31:08.194Z,10.55
2022-09-07T20:32:40.250Z,9.85
2022-09-07T20:34:12.194Z,10.75
2022-09-07T20:35:44.598Z,11.55
2022-09-07T20:37:16.302Z,10.68
2022-09-07T20:38:53.519Z,10.60
2022-09-07T20:40:25.210Z,11.07
2022-09-07T20:41:56.962Z,11.38
2022-09-07T20:43:29.752Z,11.20
2022-09-07T20:45:02.338Z,10.38
2022-09-07T20:46:34.228Z,10.85
2022-09-07T20:48:05.949Z,12.80
2022-09-07T20:49:37.767Z,12.05
2022-09-07T20:51:12.813Z,12.25
2022-09-07T20:52:44.511Z,12.73
2022-09-07T20:54:16.255Z,11.63
2022-09-07T20:55:47.961Z,11.50
2022-09-07T20:57:19.671Z,11.70
2022-09-07T20:59:02.893Z,11.65
2022-09-07T21:00:34.634Z,12.32
2022-09-07T21:02:06.396Z,13.85
2022-09-07T21:03:38.926Z,11.93
2022-09-07T21:05:10.701Z,12.43
2022-09-07T21:06:42.390Z,10.45
2022-09-07T21:08:15.025Z,11.35
2022-09-07T21:09:46.755Z,11.00
2022-09-07T21:11:21.353Z,11.15
2022-09-07T21:12:53.525Z,11.45
2022-09-07T21:14:25.427Z,10.27
2022-09-07T21:15:57.188Z,10.88
2022-09-07T21:17:28.872Z,10.90
2022-09-07T21:19:01.912Z,10.73
2022-09-07T21:20:33.590Z,10.07
2022-09-07T21:22:05.280Z,10.48
2022-09-07T21:23:37.477Z,11.18
2022-09-07T21:25:09.783Z,11.75
2022-09-07T21:26:41.567Z,9.77
2022-09-07T21:28:13.270Z,9.93
2022-09-07T21:29:44.942Z,10.10
2022-09-07T21:31:16.659Z,10.00
2022-09-07T21:32:52.229Z,9.07
2022-09-07T21:34:24.224Z,9.90
2022-09-07T21:35:56.326Z,9.35
2022-09-07T21:37:28.225Z,9.10
2022-09-07T21:38:59.908Z,7.80
2022-09-07T21:40:31.704Z,7.40
2022-09-07T21:42:04.576Z,7.75
2022-09-07T21:43:36.289Z,8.05
2022-09-07T21:45:09.193Z,7.93
2022-09-07T21:46:42.704Z,7.85
2022-09-07T21:48:14.468Z,8.25
2022-09-07T21:49:46.173Z,7.90
2022-09-07T21:51:18.021Z,7.70
2022-09-07T21:52:49.713Z,8.65
2022-09-07T21:54:21.448Z,7.93
2022-09-07T21:56:01.520Z,7.60
2022-09-07T21:57:33.195Z,7.75
2022-09-07T21:59:05.254Z,8.38
2022-09-07T22:00:38.945Z,10.05
2022-09-07T22:02:10.923Z,9.85
2022-09-07T22:03:45.874Z,11.38
2022-09-07T22:05:17.856Z,11.35
2022-09-07T22:06:49.577Z,11.15
2022-09-07T22:08:21.277Z,10.30
2022-09-07T22:09:52.987Z,9.38
2022-09-07T22:11:26.942Z,10.38
2022-09-07T22:12:58.609Z,11.70
2022-09-07T22:14:30.530Z,9.80
2022-09-07T22:16:03.620Z,10.25
2022-09-07T22:17:35.402Z,9.60
2022-09-07T22:19:07.294Z,9.85
2022-09-07T22:20:39.817Z,8.68
2022-09-07T22:22:12.059Z,9.57
2022-09-07T22:23:47.486Z,9.40
2022-09-07T22:25:19.153Z,9.10
2022-09-07T22:26:51.709Z,9.23
2022-09-07T22:28:23.421Z,9.80
2022-09-07T22:29:55.424Z,10.23
2022-09-07T22:31:29.938Z,10.32
2022-09-07T22:33:01.677Z,9.70
2022-09-07T22:34:33.386Z,9.35